sensor_id;sensor_type;location;lat;lon;timestamp;P1;durP1;ratioP1;P2;durP2;ratioP2
20421;SDS011;10370;53.102;18.034;2023-02-18T00:00:06;11.00;;;2.28;;
20421;SDS011;10370;53.102;18.034;2023-02-18T00:05:35;17.00;;;3.28;;
20421;SDS011;10370;53.102;18.034;2023-02-18T00:11:13;13.55;;;2.38;;
20421;SDS011;10370;53.102;18.034;2023-02-18T00:16:36;13.23;;;2.15;;
20421;SDS011;10370;53.102;18.034;2023-02-18T00:22:16;18.55;;;2.47;;
20421;SDS011;10370;53.102;18.034;2023-02-18T00:27:47;16.43;;;2.57;;
20421;SDS011;10370;53.102;18.034;2023-02-18T00:33:13;16.70;;;3.45;;
20421;SDS011;10370;53.102;18.034;2023-02-18T00:38:42;17.13;;;3.30;;
20421;SDS011;10370;53.102;18.034;2023-02-18T00:44:07;16.63;;;4.25;;
20421;SDS011;10370;53.102;18.034;2023-02-18T00:49:34;15.00;;;3.03;;
20421;SDS011;10370;53.102;18.034;2023-02-18T00:55:01;14.43;;;3.15;;
20421;SDS011;10370;53.102;18.034;2023-02-18T01:00:32;18.63;;;3.80;;
20421;SDS011;10370;53.102;18.034;2023-02-18T01:06:08;26.65;;;4.43;;
20421;SDS011;10370;53.102;18.034;2023-02-18T01:11:34;14.63;;;4.35;;
20421;SDS011;10370;53.102;18.034;2023-02-18T01:16:57;10.73;;;2.10;;
20421;SDS011;10370;53.102;18.034;2023-02-18T01:22:22;23.52;;;4.95;;
20421;SDS011;10370;53.102;18.034;2023-02-18T01:27:43;16.43;;;2.87;;
20421;SDS011;10370;53.102;18.034;2023-02-18T01:33:11;19.67;;;3.87;;
20421;SDS011;10370;53.102;18.034;2023-02-18T01:38:37;16.77;;;3.58;;
20421;SDS011;10370;53.102;18.034;2023-02-18T01:49:49;23.00;;;5.17;;
20421;SDS011;10370;53.102;18.034;2023-02-18T01:55:14;17.90;;;3.22;;
20421;SDS011;10370;53.102;18.034;2023-02-18T02:00:39;23.83;;;3.80;;
20421;SDS011;10370;53.102;18.034;2023-02-18T02:06:18;18.07;;;4.13;;
20421;SDS011;10370;53.102;18.034;2023-02-18T02:17:11;7.03;;;2.57;;
20421;SDS011;10370;53.102;18.034;2023-02-18T02:40:04;11.57;;;2.70;;
20421;SDS011;10370;53.102;18.034;2023-02-18T02:45:53;17.97;;;2.70;;
20421;SDS011;10370;53.102;18.034;2023-02-18T02:51:31;12.77;;;2.83;;
20421;SDS011;10370;53.102;18.034;2023-02-18T03:19:39;16.23;;;2.53;;
20421;SDS011;10370;53.102;18.034;2023-02-18T03:25:08;14.13;;;3.07;;
20421;SDS011;10370;53.102;18.034;2023-02-18T03:30:37;8.70;;;2.43;;
20421;SDS011;10370;53.102;18.034;2023-02-18T03:36:04;15.90;;;4.33;;
20421;SDS011;10370;53.102;18.034;2023-02-18T03:41:44;18.83;;;2.73;;
20421;SDS011;10370;53.102;18.034;2023-02-18T03:47:10;17.83;;;3.27;;
20421;SDS011;10370;53.102;18.034;2023-02-18T03:52:39;14.13;;;2.33;;
20421;SDS011;10370;53.102;18.034;2023-02-18T03:58:05;13.27;;;2.40;;
20421;SDS011;10370;53.102;18.034;2023-02-18T04:03:28;14.43;;;2.30;;
20421;SDS011;10370;53.102;18.034;2023-02-18T04:08:53;10.40;;;2.80;;
20421;SDS011;10370;53.102;18.034;2023-02-18T04:14:21;15.67;;;2.60;;
20421;SDS011;10370;53.102;18.034;2023-02-18T04:19:43;10.37;;;2.47;;
20421;SDS011;10370;53.102;18.034;2023-02-18T04:25:08;12.07;;;2.43;;
20421;SDS011;10370;53.102;18.034;2023-02-18T04:30:33;12.20;;;2.90;;
20421;SDS011;10370;53.102;18.034;2023-02-18T04:35:58;17.37;;;2.63;;
20421;SDS011;10370;53.102;18.034;2023-02-18T04:41:23;19.13;;;3.00;;
20421;SDS011;10370;53.102;18.034;2023-02-18T04:46:49;13.33;;;2.33;;
20421;SDS011;10370;53.102;18.034;2023-02-18T04:52:14;9.23;;;2.70;;
20421;SDS011;10370;53.102;18.034;2023-02-18T04:57:37;15.00;;;3.17;;
20421;SDS011;10370;53.102;18.034;2023-02-18T05:03:01;10.57;;;2.43;;
20421;SDS011;10370;53.102;18.034;2023-02-18T05:08:28;13.10;;;2.20;;
20421;SDS011;10370;53.102;18.034;2023-02-18T05:13:53;11.07;;;2.00;;
20421;SDS011;10370;53.102;18.034;2023-02-18T05:19:21;16.80;;;3.43;;
20421;SDS011;10370;53.102;18.034;2023-02-18T05:24:47;9.17;;;2.27;;
20421;SDS011;10370;53.102;18.034;2023-02-18T05:30:14;9.00;;;2.20;;
20421;SDS011;10370;53.102;18.034;2023-02-18T05:35:39;22.80;;;3.47;;
20421;SDS011;10370;53.102;18.034;2023-02-18T05:41:04;14.80;;;3.33;;
20421;SDS011;10370;53.102;18.034;2023-02-18T05:46:29;12.50;;;2.30;;
20421;SDS011;10370;53.102;18.034;2023-02-18T05:51:55;13.67;;;2.87;;
20421;SDS011;10370;53.102;18.034;2023-02-18T05:57:16;19.13;;;2.93;;
20421;SDS011;10370;53.102;18.034;2023-02-18T06:02:42;15.97;;;2.53;;
20421;SDS011;10370;53.102;18.034;2023-02-18T06:08:05;12.60;;;2.73;;
20421;SDS011;10370;53.102;18.034;2023-02-18T06:13:31;19.00;;;2.80;;
20421;SDS011;10370;53.102;18.034;2023-02-18T06:18:54;17.67;;;2.40;;
20421;SDS011;10370;53.102;18.034;2023-02-18T06:24:15;16.20;;;2.63;;
20421;SDS011;10370;53.102;18.034;2023-02-18T06:29:38;17.03;;;2.70;;
20421;SDS011;10370;53.102;18.034;2023-02-18T06:35:03;15.07;;;2.77;;
20421;SDS011;10370;53.102;18.034;2023-02-18T06:40:28;16.10;;;2.90;;
20421;SDS011;10370;53.102;18.034;2023-02-18T06:45:50;12.17;;;2.60;;
20421;SDS011;10370;53.102;18.034;2023-02-18T06:51:13;17.80;;;2.80;;
20421;SDS011;10370;53.102;18.034;2023-02-18T06:56:41;18.37;;;2.67;;
20421;SDS011;10370;53.102;18.034;2023-02-18T07:02:09;13.53;;;2.60;;
20421;SDS011;10370;53.102;18.034;2023-02-18T07:07:35;11.93;;;3.17;;
20421;SDS011;10370;53.102;18.034;2023-02-18T07:13:00;18.53;;;3.30;;
20421;SDS011;10370;53.102;18.034;2023-02-18T07:18:23;17.83;;;2.70;;
20421;SDS011;10370;53.102;18.034;2023-02-18T07:23:44;9.27;;;2.37;;
20421;SDS011;10370;53.102;18.034;2023-02-18T07:29:09;16.07;;;3.10;;
20421;SDS011;10370;53.102;18.034;2023-02-18T07:34:35;13.63;;;2.70;;
20421;SDS011;10370;53.102;18.034;2023-02-18T07:40:02;15.43;;;2.97;;
20421;SDS011;10370;53.102;18.034;2023-02-18T07:45:26;17.60;;;3.10;;
20421;SDS011;10370;53.102;18.034;2023-02-18T07:50:51;11.93;;;2.40;;
20421;SDS011;10370;53.102;18.034;2023-02-18T07:56:14;19.47;;;3.10;;
20421;SDS011;10370;53.102;18.034;2023-02-18T08:01:41;16.77;;;3.40;;
20421;SDS011;10370;53.102;18.034;2023-02-18T08:07:05;16.80;;;2.70;;
20421;SDS011;10370;53.102;18.034;2023-02-18T08:12:33;17.90;;;2.57;;
20421;SDS011;10370;53.102;18.034;2023-02-18T08:18:06;16.63;;;2.97;;
20421;SDS011;10370;53.102;18.034;2023-02-18T08:23:33;12.43;;;2.70;;
20421;SDS011;10370;53.102;18.034;2023-02-18T08:28:59;9.27;;;2.25;;
20421;SDS011;10370;53.102;18.034;2023-02-18T08:34:22;13.13;;;2.47;;
20421;SDS011;10370;53.102;18.034;2023-02-18T08:39:49;13.98;;;3.22;;
20421;SDS011;10370;53.102;18.034;2023-02-18T08:45:12;13.38;;;2.63;;
20421;SDS011;10370;53.102;18.034;2023-02-18T08:50:38;12.55;;;2.78;;
20421;SDS011;10370;53.102;18.034;2023-02-18T08:56:07;22.00;;;3.00;;
20421;SDS011;10370;53.102;18.034;2023-02-18T09:01:33;19.57;;;3.17;;
20421;SDS011;10370;53.102;18.034;2023-02-18T09:06:57;17.93;;;2.93;;
20421;SDS011;10370;53.102;18.034;2023-02-18T09:12:35;15.45;;;3.88;;
20421;SDS011;10370;53.102;18.034;2023-02-18T09:18:04;12.83;;;2.63;;
20421;SDS011;10370;53.102;18.034;2023-02-18T09:23:26;12.90;;;2.95;;
20421;SDS011;10370;53.102;18.034;2023-02-18T09:28:51;17.67;;;3.08;;
20421;SDS011;10370;53.102;18.034;2023-02-18T09:34:17;11.80;;;3.28;;
20421;SDS011;10370;53.102;18.034;2023-02-18T09:39:40;14.52;;;2.65;;
20421;SDS011;10370;53.102;18.034;2023-02-18T09:45:06;16.58;;;2.92;;
20421;SDS011;10370;53.102;18.034;2023-02-18T09:50:32;17.15;;;3.00;;
20421;SDS011;10370;53.102;18.034;2023-02-18T09:55:58;17.95;;;2.90;;
20421;SDS011;10370;53.102;18.034;2023-02-18T10:01:31;14.60;;;2.90;;
20421;SDS011;10370;53.102;18.034;2023-02-18T10:06:59;16.33;;;3.13;;
20421;SDS011;10370;53.102;18.034;2023-02-18T10:12:28;21.42;;;4.00;;
20421;SDS011;10370;53.102;18.034;2023-02-18T10:17:54;20.00;;;3.85;;
20421;SDS011;10370;53.102;18.034;2023-02-18T10:23:18;48.88;;;11.18;;
20421;SDS011;10370;53.102;18.034;2023-02-18T10:28:41;19.90;;;4.13;;
20421;SDS011;10370;53.102;18.034;2023-02-18T10:34:16;16.73;;;3.90;;
20421;SDS011;10370;53.102;18.034;2023-02-18T10:39:50;26.92;;;7.03;;
20421;SDS011;10370;53.102;18.034;2023-02-18T10:45:47;24.33;;;6.05;;
20421;SDS011;10370;53.102;18.034;2023-02-18T10:51:21;21.85;;;5.43;;
20421;SDS011;10370;53.102;18.034;2023-02-18T10:56:49;22.20;;;5.47;;
20421;SDS011;10370;53.102;18.034;2023-02-18T11:02:16;36.63;;;8.98;;
20421;SDS011;10370;53.102;18.034;2023-02-18T11:07:40;22.58;;;5.05;;
20421;SDS011;10370;53.102;18.034;2023-02-18T11:13:08;25.42;;;5.82;;
20421;SDS011;10370;53.102;18.034;2023-02-18T11:18:40;19.23;;;4.22;;
20421;SDS011;10370;53.102;18.034;2023-02-18T11:24:08;24.52;;;4.90;;
20421;SDS011;10370;53.102;18.034;2023-02-18T11:29:37;22.60;;;4.35;;
20421;SDS011;10370;53.102;18.034;2023-02-18T11:35:02;23.98;;;5.53;;
20421;SDS011;10370;53.102;18.034;2023-02-18T11:40:31;31.35;;;8.65;;
20421;SDS011;10370;53.102;18.034;2023-02-18T11:46:09;31.98;;;8.13;;
20421;SDS011;10370;53.102;18.034;2023-02-18T11:51:36;15.93;;;5.22;;
20421;SDS011;10370;53.102;18.034;2023-02-18T11:57:03;20.88;;;5.68;;
20421;SDS011;10370;53.102;18.034;2023-02-18T12:02:33;33.08;;;6.55;;
20421;SDS011;10370;53.102;18.034;2023-02-18T12:08:17;23.50;;;7.00;;
20421;SDS011;10370;53.102;18.034;2023-02-18T12:42:53;25.98;;;5.72;;
20421;SDS011;10370;53.102;18.034;2023-02-18T12:48:46;16.77;;;6.55;;
20421;SDS011;10370;53.102;18.034;2023-02-18T13:00:36;31.05;;;13.10;;
20421;SDS011;10370;53.102;18.034;2023-02-18T13:06:26;15.35;;;4.55;;
20421;SDS011;10370;53.102;18.034;2023-02-18T13:17:42;10.20;;;3.00;;
20421;SDS011;10370;53.102;18.034;2023-02-18T13:23:05;10.15;;;2.75;;
20421;SDS011;10370;53.102;18.034;2023-02-18T13:29:25;15.20;;;3.50;;
20421;SDS011;10370;53.102;18.034;2023-02-18T13:34:31;16.85;;;3.90;;
20421;SDS011;10370;53.102;18.034;2023-02-18T13:40:17;9.20;;;3.38;;
20421;SDS011;10370;53.102;18.034;2023-02-18T13:45:42;12.20;;;3.78;;
20421;SDS011;10370;53.102;18.034;2023-02-18T13:57:12;7.63;;;2.85;;
20421;SDS011;10370;53.102;18.034;2023-02-18T14:02:54;10.50;;;2.90;;
20421;SDS011;10370;53.102;18.034;2023-02-18T14:08:36;7.28;;;2.55;;
20421;SDS011;10370;53.102;18.034;2023-02-18T14:25:32;17.13;;;6.30;;
20421;SDS011;10370;53.102;18.034;2023-02-18T14:47:53;6.53;;;3.40;;
20421;SDS011;10370;53.102;18.034;2023-02-18T14:53:44;7.70;;;3.43;;
20421;SDS011;10370;53.102;18.034;2023-02-18T14:59:09;9.33;;;3.40;;
20421;SDS011;10370;53.102;18.034;2023-02-18T15:04:35;8.43;;;3.60;;
20421;SDS011;10370;53.102;18.034;2023-02-18T15:09:58;19.13;;;8.03;;
20421;SDS011;10370;53.102;18.034;2023-02-18T15:15:25;7.13;;;3.07;;
20421;SDS011;10370;53.102;18.034;2023-02-18T15:20:51;8.83;;;4.17;;
20421;SDS011;10370;53.102;18.034;2023-02-18T15:26:18;7.10;;;3.57;;
20421;SDS011;10370;53.102;18.034;2023-02-18T15:31:46;11.57;;;3.53;;
20421;SDS011;10370;53.102;18.034;2023-02-18T15:37:12;10.93;;;4.33;;
20421;SDS011;10370;53.102;18.034;2023-02-18T15:42:35;10.40;;;3.80;;
20421;SDS011;10370;53.102;18.034;2023-02-18T15:48:00;7.50;;;3.93;;
20421;SDS011;10370;53.102;18.034;2023-02-18T15:53:28;11.63;;;3.33;;
20421;SDS011;10370;53.102;18.034;2023-02-18T15:59:08;6.43;;;3.20;;
20421;SDS011;10370;53.102;18.034;2023-02-18T16:04:43;9.93;;;5.40;;
20421;SDS011;10370;53.102;18.034;2023-02-18T16:10:22;5.17;;;3.17;;
20421;SDS011;10370;53.102;18.034;2023-02-18T16:15:45;7.67;;;3.63;;
20421;SDS011;10370;53.102;18.034;2023-02-18T16:26:41;7.83;;;3.87;;
20421;SDS011;10370;53.102;18.034;2023-02-18T16:32:04;9.83;;;4.60;;
20421;SDS011;10370;53.102;18.034;2023-02-18T16:37:28;11.13;;;4.37;;
20421;SDS011;10370;53.102;18.034;2023-02-18T16:43:00;11.10;;;4.43;;
20421;SDS011;10370;53.102;18.034;2023-02-18T16:48:35;12.77;;;5.07;;
20421;SDS011;10370;53.102;18.034;2023-02-18T16:54:02;10.13;;;4.70;;
20421;SDS011;10370;53.102;18.034;2023-02-18T16:59:27;20.70;;;9.07;;
20421;SDS011;10370;53.102;18.034;2023-02-18T17:04:50;13.40;;;5.40;;
20421;SDS011;10370;53.102;18.034;2023-02-18T17:10:18;8.93;;;4.83;;
20421;SDS011;10370;53.102;18.034;2023-02-18T17:15:40;9.10;;;4.77;;
20421;SDS011;10370;53.102;18.034;2023-02-18T17:21:09;8.07;;;4.30;;
20421;SDS011;10370;53.102;18.034;2023-02-18T17:26:35;9.23;;;3.93;;
20421;SDS011;10370;53.102;18.034;2023-02-18T17:31:56;11.03;;;4.50;;
20421;SDS011;10370;53.102;18.034;2023-02-18T17:37:19;7.83;;;4.27;;
20421;SDS011;10370;53.102;18.034;2023-02-18T17:42:44;9.37;;;4.27;;
20421;SDS011;10370;53.102;18.034;2023-02-18T17:48:07;9.00;;;4.93;;
20421;SDS011;10370;53.102;18.034;2023-02-18T17:53:31;11.83;;;5.57;;
20421;SDS011;10370;53.102;18.034;2023-02-18T17:58:54;12.10;;;6.30;;
20421;SDS011;10370;53.102;18.034;2023-02-18T18:04:18;13.77;;;5.63;;
20421;SDS011;10370;53.102;18.034;2023-02-18T18:09:41;11.20;;;5.90;;
20421;SDS011;10370;53.102;18.034;2023-02-18T18:15:28;8.50;;;4.67;;
20421;SDS011;10370;53.102;18.034;2023-02-18T18:20:51;11.07;;;5.23;;
20421;SDS011;10370;53.102;18.034;2023-02-18T18:26:18;13.27;;;5.43;;
20421;SDS011;10370;53.102;18.034;2023-02-18T18:31:43;9.53;;;4.90;;
20421;SDS011;10370;53.102;18.034;2023-02-18T18:37:10;10.10;;;6.00;;
20421;SDS011;10370;53.102;18.034;2023-02-18T18:42:39;14.03;;;6.33;;
20421;SDS011;10370;53.102;18.034;2023-02-18T18:48:08;13.70;;;5.90;;
20421;SDS011;10370;53.102;18.034;2023-02-18T18:53:33;14.53;;;5.97;;
20421;SDS011;10370;53.102;18.034;2023-02-18T18:58:58;13.67;;;6.33;;
20421;SDS011;10370;53.102;18.034;2023-02-18T19:04:19;8.90;;;5.07;;
20421;SDS011;10370;53.102;18.034;2023-02-18T19:09:44;14.17;;;7.20;;
20421;SDS011;10370;53.102;18.034;2023-02-18T19:15:06;17.60;;;7.10;;
20421;SDS011;10370;53.102;18.034;2023-02-18T19:20:30;13.57;;;6.90;;
20421;SDS011;10370;53.102;18.034;2023-02-18T19:25:52;30.03;;;12.50;;
20421;SDS011;10370;53.102;18.034;2023-02-18T19:31:14;20.30;;;9.20;;
20421;SDS011;10370;53.102;18.034;2023-02-18T19:36:39;16.53;;;7.43;;
20421;SDS011;10370;53.102;18.034;2023-02-18T19:42:08;14.50;;;6.80;;
20421;SDS011;10370;53.102;18.034;2023-02-18T19:47:29;17.30;;;8.67;;
20421;SDS011;10370;53.102;18.034;2023-02-18T19:52:57;10.43;;;6.70;;
20421;SDS011;10370;53.102;18.034;2023-02-18T19:58:19;11.33;;;5.43;;
20421;SDS011;10370;53.102;18.034;2023-02-18T20:03:40;7.27;;;4.60;;
20421;SDS011;10370;53.102;18.034;2023-02-18T20:09:05;11.90;;;5.13;;
20421;SDS011;10370;53.102;18.034;2023-02-18T20:14:27;11.77;;;5.40;;
20421;SDS011;10370;53.102;18.034;2023-02-18T20:19:48;17.50;;;6.50;;
20421;SDS011;10370;53.102;18.034;2023-02-18T20:25:20;13.20;;;6.00;;
20421;SDS011;10370;53.102;18.034;2023-02-18T20:30:46;9.07;;;5.43;;
20421;SDS011;10370;53.102;18.034;2023-02-18T20:36:13;10.47;;;5.10;;
20421;SDS011;10370;53.102;18.034;2023-02-18T20:41:39;12.13;;;5.77;;
20421;SDS011;10370;53.102;18.034;2023-02-18T20:47:08;7.30;;;4.00;;
20421;SDS011;10370;53.102;18.034;2023-02-18T20:52:38;12.03;;;3.93;;
20421;SDS011;10370;53.102;18.034;2023-02-18T20:58:04;11.57;;;3.93;;
20421;SDS011;10370;53.102;18.034;2023-02-18T21:03:30;8.47;;;3.70;;
20421;SDS011;10370;53.102;18.034;2023-02-18T21:08:52;15.87;;;4.57;;
20421;SDS011;10370;53.102;18.034;2023-02-18T21:14:23;11.97;;;4.93;;
20421;SDS011;10370;53.102;18.034;2023-02-18T21:19:46;11.30;;;4.67;;
20421;SDS011;10370;53.102;18.034;2023-02-18T21:25:10;11.13;;;4.43;;
20421;SDS011;10370;53.102;18.034;2023-02-18T21:30:37;10.80;;;4.50;;
20421;SDS011;10370;53.102;18.034;2023-02-18T21:36:06;13.60;;;4.80;;
20421;SDS011;10370;53.102;18.034;2023-02-18T21:41:33;10.93;;;4.43;;
20421;SDS011;10370;53.102;18.034;2023-02-18T21:46:59;8.67;;;4.37;;
20421;SDS011;10370;53.102;18.034;2023-02-18T21:52:25;30.90;;;8.63;;
20421;SDS011;10370;53.102;18.034;2023-02-18T21:57:50;30.83;;;7.80;;
20421;SDS011;10370;53.102;18.034;2023-02-18T22:03:13;37.27;;;8.93;;
20421;SDS011;10370;53.102;18.034;2023-02-18T22:08:39;31.20;;;7.83;;
20421;SDS011;10370;53.102;18.034;2023-02-18T22:14:03;32.40;;;8.97;;
20421;SDS011;10370;53.102;18.034;2023-02-18T22:19:28;35.67;;;9.20;;
20421;SDS011;10370;53.102;18.034;2023-02-18T22:24:49;27.90;;;7.57;;
20421;SDS011;10370;53.102;18.034;2023-02-18T22:30:10;25.97;;;8.00;;
20421;SDS011;10370;53.102;18.034;2023-02-18T22:35:32;22.70;;;7.23;;
20421;SDS011;10370;53.102;18.034;2023-02-18T22:40:55;15.40;;;5.77;;
20421;SDS011;10370;53.102;18.034;2023-02-18T22:46:24;25.73;;;9.63;;
20421;SDS011;10370;53.102;18.034;2023-02-18T22:51:51;18.57;;;7.13;;
20421;SDS011;10370;53.102;18.034;2023-02-18T22:57:16;23.77;;;8.13;;
20421;SDS011;10370;53.102;18.034;2023-02-18T23:02:41;14.27;;;5.00;;
20421;SDS011;10370;53.102;18.034;2023-02-18T23:08:11;21.03;;;6.00;;
20421;SDS011;10370;53.102;18.034;2023-02-18T23:13:37;13.73;;;5.80;;
20421;SDS011;10370;53.102;18.034;2023-02-18T23:19:01;17.07;;;5.50;;
20421;SDS011;10370;53.102;18.034;2023-02-18T23:24:26;14.20;;;5.60;;
20421;SDS011;10370;53.102;18.034;2023-02-18T23:29:53;11.70;;;4.80;;
20421;SDS011;10370;53.102;18.034;2023-02-18T23:35:18;24.37;;;7.13;;
20421;SDS011;10370;53.102;18.034;2023-02-18T23:40:41;13.97;;;5.93;;
20421;SDS011;10370;53.102;18.034;2023-02-18T23:46:06;20.77;;;5.60;;
20421;SDS011;10370;53.102;18.034;2023-02-18T23:51:30;22.17;;;7.50;;
20421;SDS011;10370;53.102;18.034;2023-02-18T23:56:55;14.50;;;5.73;;
